Bavly, Russia
Current Conditions -  °F | °C
As of 7:30 PM on Saturday 22 Nov 2014 (Local Time) from UWKE Reporting Station
Overcast Overcast  
Wind Chill:   Ceiling: 700
Heat Index: 19°   Visibility: 4mi
Dew Point: 18°   Wind: 11mph
Humidity: 93%   Direction: 240°WSW
Pressure: 30.09"   Gusts: NA
Location:  54.38°N, 53.28°E
Report Text: UWKE 221630Z 24005MPS 7000 OVC007 M07/M08 Q1019 NOSIG RMK QFE747/0997 21411060
Loading
Personal Weather Stations






























Interactive Weather Map New forecast layout! Learn more

10-Day Weather Forecast

Advertisements
Track Severe Weather on mobile